sensor_id;sensor_type;location;lat;lon;timestamp;pressure;altitude;pressure_sealevel;temperature;humidity
72558;BME280;60583;50.094;8.748;2024-01-25T00:02:25;101470.09;;;9.17;74.97
72558;BME280;60583;50.094;8.748;2024-01-25T00:05:09;101494.75;;;9.35;75.04
72558;BME280;60583;50.094;8.748;2024-01-25T00:07:53;101438.63;;;8.96;75.31
72558;BME280;60583;50.094;8.748;2024-01-25T00:10:37;101488.09;;;9.31;75.32
72558;BME280;60583;50.094;8.748;2024-01-25T00:13:21;101489.75;;;9.24;75.07
72558;BME280;60583;50.094;8.748;2024-01-25T00:16:05;101477.72;;;9.12;75.18
72558;BME280;60583;50.094;8.748;2024-01-25T00:18:49;101451.09;;;8.95;75.81
72558;BME280;60583;50.094;8.748;2024-01-25T00:21:33;101483.41;;;9.09;76.03
72558;BME280;60583;50.094;8.748;2024-01-25T00:24:17;101459.47;;;9.09;75.49
72558;BME280;60583;50.094;8.748;2024-01-25T00:27:01;101438.59;;;8.88;76.06
72558;BME280;60583;50.094;8.748;2024-01-25T00:29:46;101482.59;;;9.16;75.34
72558;BME280;60583;50.094;8.748;2024-01-25T00:32:30;101406.13;;;8.76;75.63
72558;BME280;60583;50.094;8.748;2024-01-25T00:35:14;101464.91;;;9.07;75.91
72558;BME280;60583;50.094;8.748;2024-01-25T00:37:58;101485.06;;;9.10;75.97
72558;BME280;60583;50.094;8.748;2024-01-25T00:40:45;101455.50;;;8.79;76.72
72558;BME280;60583;50.094;8.748;2024-01-25T00:43:29;101501.56;;;9.21;76.54
72558;BME280;60583;50.094;8.748;2024-01-25T00:46:14;101488.75;;;9.25;75.88
72558;BME280;60583;50.094;8.748;2024-01-25T00:48:58;101461.63;;;9.13;76.51
72558;BME280;60583;50.094;8.748;2024-01-25T00:51:46;101452.47;;;9.08;76.24
72558;BME280;60583;50.094;8.748;2024-01-25T00:54:31;101484.78;;;9.29;76.00
72558;BME280;60583;50.094;8.748;2024-01-25T00:57:15;101491.13;;;9.44;75.63
72558;BME280;60583;50.094;8.748;2024-01-25T00:59:59;101511.94;;;9.48;75.78
72558;BME280;60583;50.094;8.748;2024-01-25T01:02:44;101494.63;;;9.52;75.19
72558;BME280;60583;50.094;8.748;2024-01-25T01:05:29;101498.09;;;9.45;75.51
72558;BME280;60583;50.094;8.748;2024-01-25T01:08:13;101486.13;;;9.41;75.85
72558;BME280;60583;50.094;8.748;2024-01-25T01:10:57;101481.44;;;9.19;75.92
72558;BME280;60583;50.094;8.748;2024-01-25T01:13:41;101492.59;;;9.30;75.75
72558;BME280;60583;50.094;8.748;2024-01-25T01:16:25;101509.09;;;9.34;76.30
72558;BME280;60583;50.094;8.748;2024-01-25T01:19:09;101509.09;;;9.50;74.83
72558;BME280;60583;50.094;8.748;2024-01-25T01:21:53;101480.47;;;9.36;74.89
72558;BME280;60583;50.094;8.748;2024-01-25T01:24:37;101515.59;;;9.55;74.96
72558;BME280;60583;50.094;8.748;2024-01-25T01:27:21;101466.28;;;9.11;75.97
72558;BME280;60583;50.094;8.748;2024-01-25T01:30:05;101468.97;;;9.27;74.52
72558;BME280;60583;50.094;8.748;2024-01-25T01:32:51;101488.78;;;9.41;75.02
72558;BME280;60583;50.094;8.748;2024-01-25T01:35:36;101477.81;;;9.36;74.66
72558;BME280;60583;50.094;8.748;2024-01-25T01:38:20;101504.09;;;9.47;75.00
72558;BME280;60583;50.094;8.748;2024-01-25T01:41:04;101514.75;;;9.55;74.36
72558;BME280;60583;50.094;8.748;2024-01-25T01:43:52;101476.97;;;9.35;74.45
72558;BME280;60583;50.094;8.748;2024-01-25T01:46:37;101484.13;;;9.35;74.56
72558;BME280;60583;50.094;8.748;2024-01-25T01:49:25;101425.81;;;8.99;74.56
72558;BME280;60583;50.094;8.748;2024-01-25T01:52:09;101505.44;;;9.43;74.65
72558;BME280;60583;50.094;8.748;2024-01-25T01:54:54;101498.44;;;9.34;75.50
72558;BME280;60583;50.094;8.748;2024-01-25T01:57:40;101486.28;;;9.31;75.07
72558;BME280;60583;50.094;8.748;2024-01-25T02:00:25;101486.44;;;9.30;75.06
72558;BME280;60583;50.094;8.748;2024-01-25T02:03:09;101462.78;;;9.11;75.50
72558;BME280;60583;50.094;8.748;2024-01-25T02:05:53;101461.44;;;9.15;75.72
72558;BME280;60583;50.094;8.748;2024-01-25T02:08:37;101463.13;;;9.16;75.37
72558;BME280;60583;50.094;8.748;2024-01-25T02:11:21;101473.59;;;9.17;74.60
72558;BME280;60583;50.094;8.748;2024-01-25T02:14:05;101466.13;;;9.21;75.14
72558;BME280;60583;50.094;8.748;2024-01-25T02:16:50;101495.59;;;9.35;76.19
72558;BME280;60583;50.094;8.748;2024-01-25T02:19:34;101505.09;;;9.38;76.46
72558;BME280;60583;50.094;8.748;2024-01-25T02:22:19;101498.75;;;9.31;78.26
72558;BME280;60583;50.094;8.748;2024-01-25T02:25:04;101459.44;;;9.01;78.29
72558;BME280;60583;50.094;8.748;2024-01-25T02:27:49;101498.91;;;9.29;78.92
72558;BME280;60583;50.094;8.748;2024-01-25T02:30:33;101452.75;;;8.96;78.83
72558;BME280;60583;50.094;8.748;2024-01-25T02:33:17;101479.88;;;9.00;78.88
72558;BME280;60583;50.094;8.748;2024-01-25T02:36:01;101456.34;;;8.79;78.57
72558;BME280;60583;50.094;8.748;2024-01-25T02:38:45;101497.66;;;8.99;78.21
72558;BME280;60583;50.094;8.748;2024-01-25T02:41:29;101463.69;;;8.85;77.95
72558;BME280;60583;50.094;8.748;2024-01-25T02:44:13;101493.97;;;8.92;78.08
72558;BME280;60583;50.094;8.748;2024-01-25T02:46:57;101501.63;;;8.95;78.09
72558;BME280;60583;50.094;8.748;2024-01-25T02:49:41;101517.94;;;9.01;78.53
72558;BME280;60583;50.094;8.748;2024-01-25T02:52:25;101525.28;;;8.98;78.49
72558;BME280;60583;50.094;8.748;2024-01-25T02:55:09;101466.59;;;8.66;78.67
72558;BME280;60583;50.094;8.748;2024-01-25T02:57:53;101518.09;;;8.99;77.92
72558;BME280;60583;50.094;8.748;2024-01-25T03:00:37;101473.63;;;8.75;77.82
72558;BME280;60583;50.094;8.748;2024-01-25T03:03:21;101519.47;;;9.03;77.64
72558;BME280;60583;50.094;8.748;2024-01-25T03:06:07;101508.28;;;8.99;77.52
72558;BME280;60583;50.094;8.748;2024-01-25T03:08:51;101526.94;;;9.08;77.25
72558;BME280;60583;50.094;8.748;2024-01-25T03:11:35;101513.22;;;8.78;78.54
72558;BME280;60583;50.094;8.748;2024-01-25T03:14:19;101493.88;;;8.68;78.09
72558;BME280;60583;50.094;8.748;2024-01-25T03:17:03;101493.84;;;8.60;78.87
72558;BME280;60583;50.094;8.748;2024-01-25T03:19:46;101475.34;;;8.51;77.60
72558;BME280;60583;50.094;8.748;2024-01-25T03:22:31;101532.50;;;8.80;78.25
72558;BME280;60583;50.094;8.748;2024-01-25T03:25:15;101527.78;;;8.74;78.05
72558;BME280;60583;50.094;8.748;2024-01-25T03:27:59;101539.44;;;8.73;78.84
72558;BME280;60583;50.094;8.748;2024-01-25T03:30:43;101548.44;;;8.80;78.71
72558;BME280;60583;50.094;8.748;2024-01-25T03:33:27;101446.22;;;8.15;78.13
72558;BME280;60583;50.094;8.748;2024-01-25T03:36:15;101561.78;;;8.88;78.78
72558;BME280;60583;50.094;8.748;2024-01-25T03:38:59;101566.41;;;8.78;78.86
72558;BME280;60583;50.094;8.748;2024-01-25T03:41:43;101500.69;;;8.19;79.31
72558;BME280;60583;50.094;8.748;2024-01-25T03:44:27;101542.94;;;8.48;79.87
72558;BME280;60583;50.094;8.748;2024-01-25T03:47:11;101559.50;;;8.42;79.59
72558;BME280;60583;50.094;8.748;2024-01-25T03:49:55;101588.41;;;8.63;79.82
72558;BME280;60583;50.094;8.748;2024-01-25T03:52:38;101544.28;;;8.52;79.30
72558;BME280;60583;50.094;8.748;2024-01-25T03:55:22;101541.56;;;8.44;79.26
72558;BME280;60583;50.094;8.748;2024-01-25T03:58:06;101583.44;;;8.68;79.35
72558;BME280;60583;50.094;8.748;2024-01-25T04:00:50;101587.25;;;8.65;80.20
72558;BME280;60583;50.094;8.748;2024-01-25T04:03:34;101565.44;;;8.62;79.15
72558;BME280;60583;50.094;8.748;2024-01-25T04:06:18;101578.75;;;8.62;79.63
72558;BME280;60583;50.094;8.748;2024-01-25T04:09:03;101581.50;;;8.52;80.55
72558;BME280;60583;50.094;8.748;2024-01-25T04:11:47;101552.88;;;8.46;79.60
72558;BME280;60583;50.094;8.748;2024-01-25T04:14:31;101535.84;;;8.31;80.27
72558;BME280;60583;50.094;8.748;2024-01-25T04:17:15;101520.91;;;8.30;80.24
72558;BME280;60583;50.094;8.748;2024-01-25T04:19:59;101503.75;;;8.07;80.12
72558;BME280;60583;50.094;8.748;2024-01-25T04:22:43;101582.28;;;8.45;80.68
72558;BME280;60583;50.094;8.748;2024-01-25T04:25:27;101570.75;;;8.36;80.61
72558;BME280;60583;50.094;8.748;2024-01-25T04:28:11;101572.91;;;8.32;80.57
72558;BME280;60583;50.094;8.748;2024-01-25T04:30:54;101589.41;;;8.44;80.71
72558;BME280;60583;50.094;8.748;2024-01-25T04:33:38;101596.34;;;8.37;80.50
72558;BME280;60583;50.094;8.748;2024-01-25T04:36:23;101603.16;;;8.40;80.58
72558;BME280;60583;50.094;8.748;2024-01-25T04:39:07;101573.78;;;8.23;80.73
72558;BME280;60583;50.094;8.748;2024-01-25T04:41:51;101581.72;;;8.33;80.65
72558;BME280;60583;50.094;8.748;2024-01-25T04:44:35;101557.25;;;8.12;81.24
72558;BME280;60583;50.094;8.748;2024-01-25T04:47:19;101574.03;;;8.30;80.42
72558;BME280;60583;50.094;8.748;2024-01-25T04:50:03;101571.44;;;8.20;81.51
72558;BME280;60583;50.094;8.748;2024-01-25T04:52:48;101599.38;;;8.42;81.24
72558;BME280;60583;50.094;8.748;2024-01-25T04:55:31;101610.16;;;8.41;81.53
72558;BME280;60583;50.094;8.748;2024-01-25T04:58:15;101569.56;;;8.13;81.80
72558;BME280;60583;50.094;8.748;2024-01-25T05:00:59;101626.50;;;8.28;81.69
72558;BME280;60583;50.094;8.748;2024-01-25T05:03:43;101592.38;;;8.06;82.57
72558;BME280;60583;50.094;8.748;2024-01-25T05:06:27;101635.16;;;8.30;82.21
72558;BME280;60583;50.094;8.748;2024-01-25T05:09:11;101628.44;;;8.26;81.47
72558;BME280;60583;50.094;8.748;2024-01-25T05:11:55;101629.91;;;8.20;81.98
72558;BME280;60583;50.094;8.748;2024-01-25T05:14:41;101633.06;;;8.24;81.61
72558;BME280;60583;50.094;8.748;2024-01-25T05:17:25;101635.88;;;8.22;81.80
72558;BME280;60583;50.094;8.748;2024-01-25T05:20:09;101606.75;;;8.13;81.28
72558;BME280;60583;50.094;8.748;2024-01-25T05:22:54;101555.06;;;7.72;82.20
72558;BME280;60583;50.094;8.748;2024-01-25T05:25:38;101631.19;;;8.34;81.61
72558;BME280;60583;50.094;8.748;2024-01-25T05:28:21;101634.47;;;8.28;81.10
72558;BME280;60583;50.094;8.748;2024-01-25T05:31:05;101615.00;;;8.10;81.43
72558;BME280;60583;50.094;8.748;2024-01-25T05:33:53;101645.16;;;8.36;81.56
72558;BME280;60583;50.094;8.748;2024-01-25T05:36:37;101608.94;;;8.17;81.12
72558;BME280;60583;50.094;8.748;2024-01-25T05:39:21;101625.09;;;8.24;81.13
72558;BME280;60583;50.094;8.748;2024-01-25T05:42:05;101662.47;;;8.40;80.86
72558;BME280;60583;50.094;8.748;2024-01-25T05:44:49;101662.09;;;8.35;81.61
72558;BME280;60583;50.094;8.748;2024-01-25T05:47:32;101658.81;;;8.41;80.39
72558;BME280;60583;50.094;8.748;2024-01-25T05:50:18;101651.00;;;8.40;80.84
72558;BME280;60583;50.094;8.748;2024-01-25T05:53:02;101637.03;;;8.20;80.85
72558;BME280;60583;50.094;8.748;2024-01-25T05:55:46;101654.97;;;8.36;80.61
72558;BME280;60583;50.094;8.748;2024-01-25T05:58:30;101666.38;;;8.28;80.85
72558;BME280;60583;50.094;8.748;2024-01-25T06:01:14;101649.78;;;8.16;81.14
72558;BME280;60583;50.094;8.748;2024-01-25T06:03:58;101657.44;;;8.19;81.74
72558;BME280;60583;50.094;8.748;2024-01-25T06:06:42;101612.13;;;8.03;81.40
72558;BME280;60583;50.094;8.748;2024-01-25T06:09:26;101653.47;;;8.33;80.47
72558;BME280;60583;50.094;8.748;2024-01-25T06:12:10;101662.03;;;8.27;80.86
72558;BME280;60583;50.094;8.748;2024-01-25T06:14:53;101642.81;;;8.15;81.28
72558;BME280;60583;50.094;8.748;2024-01-25T06:17:37;101578.22;;;7.80;80.77
72558;BME280;60583;50.094;8.748;2024-01-25T06:20:21;101641.97;;;8.15;80.74
72558;BME280;60583;50.094;8.748;2024-01-25T06:23:05;101636.72;;;8.05;80.86
72558;BME280;60583;50.094;8.748;2024-01-25T06:25:49;101665.25;;;8.21;81.44
72558;BME280;60583;50.094;8.748;2024-01-25T06:28:33;101643.78;;;8.14;81.10
72558;BME280;60583;50.094;8.748;2024-01-25T06:31:17;101621.59;;;8.06;81.61
72558;BME280;60583;50.094;8.748;2024-01-25T06:34:01;101666.41;;;8.36;81.43
72558;BME280;60583;50.094;8.748;2024-01-25T06:36:45;101634.00;;;8.15;81.61
72558;BME280;60583;50.094;8.748;2024-01-25T06:39:29;101599.00;;;7.84;81.95
72558;BME280;60583;50.094;8.748;2024-01-25T06:42:13;101656.31;;;8.22;81.91
72558;BME280;60583;50.094;8.748;2024-01-25T06:44:57;101657.91;;;8.15;82.36
72558;BME280;60583;50.094;8.748;2024-01-25T06:47:41;101655.69;;;8.10;82.56
72558;BME280;60583;50.094;8.748;2024-01-25T06:50:24;101657.13;;;8.05;82.53
72558;BME280;60583;50.094;8.748;2024-01-25T06:53:08;101655.16;;;8.07;82.87
72558;BME280;60583;50.094;8.748;2024-01-25T06:55:52;101667.47;;;8.08;82.89
72558;BME280;60583;50.094;8.748;2024-01-25T06:58:36;101632.00;;;7.82;83.25
72558;BME280;60583;50.094;8.748;2024-01-25T07:01:23;101651.88;;;7.78;83.54
72558;BME280;60583;50.094;8.748;2024-01-25T07:04:07;101673.50;;;7.83;83.93
72558;BME280;60583;50.094;8.748;2024-01-25T07:06:51;101693.00;;;7.91;83.82
72558;BME280;60583;50.094;8.748;2024-01-25T07:09:35;101706.91;;;7.76;84.94
72558;BME280;60583;50.094;8.748;2024-01-25T07:12:19;101716.06;;;7.63;85.60
72558;BME280;60583;50.094;8.748;2024-01-25T07:15:03;101678.38;;;7.23;85.93
72558;BME280;60583;50.094;8.748;2024-01-25T07:17:48;101690.59;;;7.43;85.84
72558;BME280;60583;50.094;8.748;2024-01-25T07:20:31;101722.44;;;7.70;85.74
72558;BME280;60583;50.094;8.748;2024-01-25T07:23:17;101712.63;;;7.81;85.73
72558;BME280;60583;50.094;8.748;2024-01-25T07:26:00;101676.53;;;7.60;84.87
72558;BME280;60583;50.094;8.748;2024-01-25T07:28:44;101708.44;;;7.78;85.41
72558;BME280;60583;50.094;8.748;2024-01-25T07:31:29;101713.91;;;7.77;85.40
72558;BME280;60583;50.094;8.748;2024-01-25T07:34:13;101721.66;;;7.60;86.14
72558;BME280;60583;50.094;8.748;2024-01-25T07:36:57;101704.63;;;7.26;87.31
72558;BME280;60583;50.094;8.748;2024-01-25T07:39:41;101729.22;;;7.55;87.33
72558;BME280;60583;50.094;8.748;2024-01-25T07:42:25;101719.78;;;7.43;87.44
72558;BME280;60583;50.094;8.748;2024-01-25T07:45:09;101719.66;;;7.45;87.96
72558;BME280;60583;50.094;8.748;2024-01-25T07:47:53;101742.03;;;7.69;87.02
72558;BME280;60583;50.094;8.748;2024-01-25T07:50:37;101703.41;;;7.57;86.55
72558;BME280;60583;50.094;8.748;2024-01-25T07:53:21;101705.16;;;7.66;85.73
72558;BME280;60583;50.094;8.748;2024-01-25T07:56:08;101703.47;;;7.65;85.50
72558;BME280;60583;50.094;8.748;2024-01-25T07:58:53;101712.69;;;7.71;85.99
72558;BME280;60583;50.094;8.748;2024-01-25T08:01:37;101713.22;;;7.47;86.88
72558;BME280;60583;50.094;8.748;2024-01-25T08:04:21;101740.34;;;7.68;86.37
72558;BME280;60583;50.094;8.748;2024-01-25T08:07:05;101756.78;;;7.82;86.27
72558;BME280;60583;50.094;8.748;2024-01-25T08:09:49;101693.97;;;7.36;87.41
72558;BME280;60583;50.094;8.748;2024-01-25T08:12:36;101740.75;;;7.73;86.46
72558;BME280;60583;50.094;8.748;2024-01-25T08:15:22;101743.16;;;7.94;85.69
72558;BME280;60583;50.094;8.748;2024-01-25T08:18:06;101753.00;;;8.11;84.69
72558;BME280;60583;50.094;8.748;2024-01-25T08:20:50;101748.69;;;8.10;85.35
72558;BME280;60583;50.094;8.748;2024-01-25T08:23:34;101668.72;;;7.86;83.96
72558;BME280;60583;50.094;8.748;2024-01-25T08:26:18;101731.19;;;8.35;84.90
72558;BME280;60583;50.094;8.748;2024-01-25T08:29:02;101707.34;;;8.25;84.52
72558;BME280;60583;50.094;8.748;2024-01-25T08:31:46;101687.88;;;8.25;83.50
72558;BME280;60583;50.094;8.748;2024-01-25T08:34:30;101707.38;;;8.43;83.27
72558;BME280;60583;50.094;8.748;2024-01-25T08:37:13;101739.47;;;8.67;83.57
72558;BME280;60583;50.094;8.748;2024-01-25T08:39:57;101725.97;;;8.78;82.22
72558;BME280;60583;50.094;8.748;2024-01-25T08:42:41;101700.25;;;8.69;82.57
72558;BME280;60583;50.094;8.748;2024-01-25T08:45:25;101744.31;;;8.89;82.35
72558;BME280;60583;50.094;8.748;2024-01-25T08:48:09;101740.03;;;8.96;81.90
72558;BME280;60583;50.094;8.748;2024-01-25T08:50:53;101733.38;;;8.92;81.47
72558;BME280;60583;50.094;8.748;2024-01-25T08:53:38;101755.41;;;9.03;81.16
72558;BME280;60583;50.094;8.748;2024-01-25T08:56:22;101715.06;;;8.72;81.39
72558;BME280;60583;50.094;8.748;2024-01-25T08:59:06;101761.16;;;9.16;81.09
72558;BME280;60583;50.094;8.748;2024-01-25T09:01:50;101735.53;;;9.15;79.47
72558;BME280;60583;50.094;8.748;2024-01-25T09:04:34;101764.63;;;9.34;79.33
72558;BME280;60583;50.094;8.748;2024-01-25T09:07:18;101757.34;;;9.44;79.36
72558;BME280;60583;50.094;8.748;2024-01-25T09:10:03;101759.72;;;9.55;78.22
72558;BME280;60583;50.094;8.748;2024-01-25T09:12:48;101749.75;;;9.57;77.56
72558;BME280;60583;50.094;8.748;2024-01-25T09:15:32;101766.00;;;9.72;78.25
72558;BME280;60583;50.094;8.748;2024-01-25T09:18:16;101758.63;;;9.66;78.24
72558;BME280;60583;50.094;8.748;2024-01-25T09:21:00;101777.00;;;9.77;77.51
72558;BME280;60583;50.094;8.748;2024-01-25T09:23:44;101736.00;;;9.61;77.26
72558;BME280;60583;50.094;8.748;2024-01-25T09:26:28;101772.94;;;9.98;76.63
72558;BME280;60583;50.094;8.748;2024-01-25T09:29:12;101736.75;;;9.88;76.58
72558;BME280;60583;50.094;8.748;2024-01-25T09:31:56;101762.81;;;10.10;75.79
72558;BME280;60583;50.094;8.748;2024-01-25T09:34:40;101697.63;;;9.88;74.98
72558;BME280;60583;50.094;8.748;2024-01-25T09:37:24;101760.06;;;10.27;74.46
72558;BME280;60583;50.094;8.748;2024-01-25T09:40:08;101763.41;;;10.38;73.70
72558;BME280;60583;50.094;8.748;2024-01-25T09:42:54;101767.59;;;10.32;73.82
72558;BME280;60583;50.094;8.748;2024-01-25T09:45:39;101775.13;;;10.53;73.26
72558;BME280;60583;50.094;8.748;2024-01-25T09:48:25;101767.78;;;10.47;73.00
72558;BME280;60583;50.094;8.748;2024-01-25T09:51:11;101789.47;;;10.60;72.73
72558;BME280;60583;50.094;8.748;2024-01-25T09:53:56;101792.13;;;10.60;72.71
72558;BME280;60583;50.094;8.748;2024-01-25T09:56:42;101758.94;;;10.62;71.40
72558;BME280;60583;50.094;8.748;2024-01-25T09:59:26;101749.16;;;10.79;71.23
72558;BME280;60583;50.094;8.748;2024-01-25T10:02:11;101776.66;;;11.04;69.84
72558;BME280;60583;50.094;8.748;2024-01-25T10:04:55;101748.81;;;10.82;70.02
72558;BME280;60583;50.094;8.748;2024-01-25T10:07:39;101741.28;;;10.77;68.70
72558;BME280;60583;50.094;8.748;2024-01-25T10:10:24;101761.16;;;10.91;68.62
72558;BME280;60583;50.094;8.748;2024-01-25T10:13:12;101782.34;;;11.25;67.57
72558;BME280;60583;50.094;8.748;2024-01-25T10:15:56;101789.00;;;11.37;66.75
72558;BME280;60583;50.094;8.748;2024-01-25T10:18:41;101745.47;;;11.04;65.98
72558;BME280;60583;50.094;8.748;2024-01-25T10:21:26;101785.19;;;11.07;67.40
72558;BME280;60583;50.094;8.748;2024-01-25T10:24:11;101768.66;;;11.04;67.32
72558;BME280;60583;50.094;8.748;2024-01-25T10:26:55;101784.81;;;11.26;66.88
72558;BME280;60583;50.094;8.748;2024-01-25T10:29:39;101762.00;;;11.00;66.72
72558;BME280;60583;50.094;8.748;2024-01-25T10:32:23;101757.00;;;11.05;66.75
72558;BME280;60583;50.094;8.748;2024-01-25T10:35:08;101768.00;;;11.10;66.38
72558;BME280;60583;50.094;8.748;2024-01-25T10:37:53;101761.78;;;11.25;65.08
72558;BME280;60583;50.094;8.748;2024-01-25T10:40:38;101781.81;;;11.21;65.79
72558;BME280;60583;50.094;8.748;2024-01-25T10:43:23;101734.78;;;10.80;66.30
72558;BME280;60583;50.094;8.748;2024-01-25T10:46:07;101772.47;;;11.25;66.43
72558;BME280;60583;50.094;8.748;2024-01-25T10:51:28;101721.13;;;10.91;66.53
72558;BME280;60583;50.094;8.748;2024-01-25T10:54:14;101810.84;;;11.48;65.98
72558;BME280;60583;50.094;8.748;2024-01-25T10:56:58;101790.16;;;11.18;66.70
72558;BME280;60583;50.094;8.748;2024-01-25T10:59:42;101802.53;;;11.27;66.69
72558;BME280;60583;50.094;8.748;2024-01-25T11:02:26;101802.16;;;11.46;65.87
72558;BME280;60583;50.094;8.748;2024-01-25T11:05:15;101766.78;;;11.36;65.19
72558;BME280;60583;50.094;8.748;2024-01-25T11:08:00;101797.38;;;11.97;64.07
72558;BME280;60583;50.094;8.748;2024-01-25T11:10:48;101766.69;;;11.85;63.02
72558;BME280;60583;50.094;8.748;2024-01-25T11:13:33;101762.63;;;12.36;63.50
72558;BME280;60583;50.094;8.748;2024-01-25T11:16:18;101784.06;;;12.81;61.53
72558;BME280;60583;50.094;8.748;2024-01-25T11:19:04;101741.97;;;12.67;60.59
72558;BME280;60583;50.094;8.748;2024-01-25T11:21:50;101782.00;;;12.38;60.71
72558;BME280;60583;50.094;8.748;2024-01-25T11:24:37;101784.97;;;12.04;60.70
72558;BME280;60583;50.094;8.748;2024-01-25T11:27:22;101774.75;;;11.77;61.48
72558;BME280;60583;50.094;8.748;2024-01-25T11:30:07;101766.78;;;11.44;62.32
72558;BME280;60583;50.094;8.748;2024-01-25T11:32:52;101758.97;;;11.19;63.58
72558;BME280;60583;50.094;8.748;2024-01-25T11:35:36;101753.63;;;11.19;62.31
72558;BME280;60583;50.094;8.748;2024-01-25T11:38:20;101782.00;;;11.04;63.82
72558;BME280;60583;50.094;8.748;2024-01-25T11:41:04;101742.63;;;10.73;65.19
72558;BME280;60583;50.094;8.748;2024-01-25T11:43:48;101758.97;;;10.78;66.15
72558;BME280;60583;50.094;8.748;2024-01-25T11:46:33;101724.81;;;10.74;64.55
72558;BME280;60583;50.094;8.748;2024-01-25T11:49:17;101727.13;;;10.93;63.87
72558;BME280;60583;50.094;8.748;2024-01-25T11:52:01;101710.78;;;10.88;64.29
72558;BME280;60583;50.094;8.748;2024-01-25T11:54:46;101742.09;;;11.26;63.00
72558;BME280;60583;50.094;8.748;2024-01-25T11:57:31;101724.06;;;11.20;64.24
72558;BME280;60583;50.094;8.748;2024-01-25T12:00:17;101736.56;;;11.44;63.31
72558;BME280;60583;50.094;8.748;2024-01-25T12:03:02;101726.41;;;11.39;63.85
72558;BME280;60583;50.094;8.748;2024-01-25T12:05:46;101656.41;;;10.97;63.44
72558;BME280;60583;50.094;8.748;2024-01-25T12:08:33;101663.41;;;10.98;63.94
72558;BME280;60583;50.094;8.748;2024-01-25T12:11:17;101724.44;;;11.09;65.14
72558;BME280;60583;50.094;8.748;2024-01-25T12:14:02;101731.63;;;11.17;65.28
72558;BME280;60583;50.094;8.748;2024-01-25T12:16:46;101712.22;;;11.23;64.66
72558;BME280;60583;50.094;8.748;2024-01-25T12:19:30;101698.91;;;11.15;65.55
72558;BME280;60583;50.094;8.748;2024-01-25T12:22:20;101699.19;;;11.36;64.37
72558;BME280;60583;50.094;8.748;2024-01-25T12:25:08;101711.00;;;11.58;64.07
72558;BME280;60583;50.094;8.748;2024-01-25T12:27:53;101711.25;;;11.24;64.84
72558;BME280;60583;50.094;8.748;2024-01-25T12:30:37;101706.41;;;11.19;63.91
72558;BME280;60583;50.094;8.748;2024-01-25T12:33:21;101709.72;;;11.37;63.62
72558;BME280;60583;50.094;8.748;2024-01-25T12:36:05;101675.56;;;10.93;64.81
72558;BME280;60583;50.094;8.748;2024-01-25T12:38:51;101702.41;;;11.15;65.71
72558;BME280;60583;50.094;8.748;2024-01-25T12:41:35;101651.19;;;11.20;64.52
72558;BME280;60583;50.094;8.748;2024-01-25T12:44:19;101645.38;;;11.55;63.67
72558;BME280;60583;50.094;8.748;2024-01-25T12:47:03;101635.47;;;11.72;62.93
72558;BME280;60583;50.094;8.748;2024-01-25T12:49:50;101656.06;;;12.16;61.70
72558;BME280;60583;50.094;8.748;2024-01-25T12:52:34;101681.63;;;12.19;61.20
72558;BME280;60583;50.094;8.748;2024-01-25T12:55:18;101684.59;;;12.47;60.53
72558;BME280;60583;50.094;8.748;2024-01-25T12:58:02;101673.78;;;13.00;58.69
72558;BME280;60583;50.094;8.748;2024-01-25T13:00:47;101638.09;;;12.70;57.05
72558;BME280;60583;50.094;8.748;2024-01-25T13:03:31;101648.78;;;13.08;57.13
72558;BME280;60583;50.094;8.748;2024-01-25T13:06:15;101662.19;;;13.52;56.58
72558;BME280;60583;50.094;8.748;2024-01-25T13:08:59;101634.31;;;13.82;54.26
72558;BME280;60583;50.094;8.748;2024-01-25T13:11:43;101628.16;;;14.24;53.13
72558;BME280;60583;50.094;8.748;2024-01-25T13:14:27;101650.28;;;14.47;54.05
72558;BME280;60583;50.094;8.748;2024-01-25T13:17:11;101653.91;;;14.88;51.76
72558;BME280;60583;50.094;8.748;2024-01-25T13:19:57;101657.19;;;14.35;52.74
72558;BME280;60583;50.094;8.748;2024-01-25T13:22:42;101651.88;;;13.84;54.43
72558;BME280;60583;50.094;8.748;2024-01-25T13:25:26;101622.44;;;13.91;53.16
72558;BME280;60583;50.094;8.748;2024-01-25T13:28:10;101642.41;;;13.88;54.08
72558;BME280;60583;50.094;8.748;2024-01-25T13:30:54;101633.81;;;13.28;54.81
72558;BME280;60583;50.094;8.748;2024-01-25T13:33:38;101562.59;;;12.90;54.50
72558;BME280;60583;50.094;8.748;2024-01-25T13:36:22;101617.94;;;13.26;55.00
72558;BME280;60583;50.094;8.748;2024-01-25T13:39:06;101582.09;;;12.98;54.91
72558;BME280;60583;50.094;8.748;2024-01-25T13:41:49;101608.97;;;13.34;56.01
72558;BME280;60583;50.094;8.748;2024-01-25T13:44:34;101588.47;;;13.12;55.68
72558;BME280;60583;50.094;8.748;2024-01-25T13:47:18;101597.59;;;12.88;56.21
72558;BME280;60583;50.094;8.748;2024-01-25T13:50:02;101552.78;;;12.38;56.53
72558;BME280;60583;50.094;8.748;2024-01-25T13:52:45;101597.50;;;12.44;57.68
72558;BME280;60583;50.094;8.748;2024-01-25T13:55:29;101591.66;;;12.26;58.37
72558;BME280;60583;50.094;8.748;2024-01-25T13:58:13;101609.47;;;12.11;58.90
72558;BME280;60583;50.094;8.748;2024-01-25T14:00:57;101605.25;;;12.16;57.97
72558;BME280;60583;50.094;8.748;2024-01-25T14:03:41;101582.28;;;11.85;57.26
72558;BME280;60583;50.094;8.748;2024-01-25T14:06:25;101600.44;;;11.89;57.90
72558;BME280;60583;50.094;8.748;2024-01-25T14:09:09;101544.06;;;11.45;58.01
72558;BME280;60583;50.094;8.748;2024-01-25T14:11:53;101572.38;;;11.63;58.25
72558;BME280;60583;50.094;8.748;2024-01-25T14:14:37;101602.22;;;11.74;58.31
72558;BME280;60583;50.094;8.748;2024-01-25T14:17:21;101590.28;;;11.54;58.14
72558;BME280;60583;50.094;8.748;2024-01-25T14:20:05;101602.78;;;11.53;59.91
72558;BME280;60583;50.094;8.748;2024-01-25T14:22:49;101615.09;;;11.71;59.29
72558;BME280;60583;50.094;8.748;2024-01-25T14:25:33;101585.50;;;11.41;60.03
72558;BME280;60583;50.094;8.748;2024-01-25T14:28:17;101591.91;;;11.32;60.11
72558;BME280;60583;50.094;8.748;2024-01-25T14:31:01;101597.34;;;11.39;60.55